Haarlem, Netherlands
Current Conditions -  °F | °C
As of 5:25 PM on Wednesday 22 Oct 2014 (Local Time) from EHAM Reporting Station
Rain Showers Rain Showers  
Wind Chill: 54°   Ceiling: Unl
Heat Index: 54°   Visibility: 6mi
Dew Point: 45°   Wind: 12mph
Humidity: 72%   Direction: 300°WNW
Pressure: 30.12"   Gusts: NA
Location:  52.38°N, 4.64°E
Report Text: EHAM 221525Z 30010KT 9999 VCSH FEW027CB 12/07 Q1020 TEMPO-SHRA
Loading
Personal Weather Stations






























Interactive Weather Map
Tropical Storm Tracking
New forecast layout! Learn more

10-Day Weather Forecast

Advertisements
Track Severe Weather on mobile